createdAt,value
2019-01-10T00:02:42.115Z,22.30
2019-01-10T00:05:47.815Z,22.20
2019-01-10T00:08:53.303Z,22.30
2019-01-10T00:11:59.003Z,22.20
2019-01-10T00:15:05.594Z,22.30
2019-01-10T00:18:12.249Z,22.20
2019-01-10T00:21:17.843Z,22.30
2019-01-10T00:24:23.606Z,22.20
2019-01-10T00:27:29.266Z,22.20
2019-01-10T00:30:35.286Z,22.20
2019-01-10T00:33:40.958Z,22.20
2019-01-10T00:36:46.703Z,22.20
2019-01-10T00:39:52.597Z,22.20
2019-01-10T00:42:58.283Z,22.20
2019-01-10T00:46:04.002Z,22.20
2019-01-10T00:49:10.046Z,22.20
2019-01-10T00:52:15.718Z,22.10
2019-01-10T00:55:21.409Z,22.10
2019-01-10T00:58:27.026Z,22.10
2019-01-10T01:01:32.884Z,22.10
2019-01-10T01:04:38.536Z,22.10
2019-01-10T01:07:44.195Z,22.10
2019-01-10T01:10:50.658Z,22.00
2019-01-10T01:13:56.310Z,22.10
2019-01-10T01:17:01.958Z,22.10
2019-01-10T01:20:08.408Z,22.00
2019-01-10T01:23:15.805Z,22.00
2019-01-10T01:26:21.458Z,22.10
2019-01-10T01:29:27.215Z,22.00
2019-01-10T01:32:32.993Z,22.00
2019-01-10T01:35:38.648Z,22.00
2019-01-10T01:38:44.409Z,21.90
2019-01-10T01:41:50.154Z,21.90
2019-01-10T01:44:55.820Z,21.90
2019-01-10T01:48:01.463Z,21.90
2019-01-10T01:51:07.193Z,21.90
2019-01-10T01:54:12.872Z,21.90
2019-01-10T01:57:19.552Z,21.90
2019-01-10T02:00:25.716Z,21.90
2019-01-10T02:03:31.339Z,21.90
2019-01-10T02:06:38.590Z,21.80
2019-01-10T02:09:44.210Z,21.70
2019-01-10T02:12:49.863Z,21.70
2019-01-10T02:15:55.510Z,21.60
2019-01-10T02:19:01.150Z,21.50
2019-01-10T02:22:06.998Z,21.40
2019-01-10T02:25:13.182Z,21.40
2019-01-10T02:28:18.816Z,21.30
2019-01-10T02:31:24.600Z,21.20
2019-01-10T02:34:30.355Z,21.20
2019-01-10T02:37:36.005Z,21.20
2019-01-10T02:40:41.663Z,21.20
2019-01-10T02:43:47.282Z,21.10
2019-01-10T02:46:53.991Z,21.10
2019-01-10T02:49:59.738Z,21.00
2019-01-10T02:53:05.594Z,21.00
2019-01-10T02:56:11.245Z,21.00
2019-01-10T02:59:17.006Z,21.00
2019-01-10T03:02:22.736Z,20.90
2019-01-10T03:05:28.514Z,20.90
2019-01-10T03:08:35.164Z,20.90
2019-01-10T03:11:40.830Z,20.80
2019-01-10T03:14:46.497Z,20.80
2019-01-10T03:17:52.150Z,20.80
2019-01-10T03:20:58.048Z,20.80
2019-01-10T03:24:03.770Z,20.80
2019-01-10T03:27:09.768Z,20.80
2019-01-10T03:30:17.600Z,20.70
2019-01-10T03:33:23.335Z,20.80
2019-01-10T03:36:29.936Z,20.70
2019-01-10T03:39:35.729Z,20.70
2019-01-10T03:42:41.362Z,20.70
2019-01-10T03:45:47.062Z,20.60
2019-01-10T03:48:52.871Z,20.60
2019-01-10T03:51:58.618Z,20.60
2019-01-10T03:55:04.280Z,20.60
2019-01-10T03:58:10.872Z,20.60
2019-01-10T04:01:16.521Z,20.60
2019-01-10T04:04:22.274Z,20.50
2019-01-10T04:07:27.914Z,20.50
2019-01-10T04:10:33.602Z,20.50
2019-01-10T04:13:39.226Z,20.50
2019-01-10T04:16:44.919Z,20.50
2019-01-10T04:19:50.631Z,20.50
2019-01-10T04:22:56.322Z,20.50
2019-01-10T04:26:01.935Z,20.40
2019-01-10T04:29:07.915Z,20.40
2019-01-10T04:32:15.219Z,20.40
2019-01-10T04:35:21.071Z,20.40
2019-01-10T04:38:26.705Z,20.40
2019-01-10T04:41:32.323Z,20.40
2019-01-10T04:44:37.982Z,20.30
2019-01-10T04:47:43.654Z,20.30
2019-01-10T04:50:50.332Z,20.30
2019-01-10T04:53:56.091Z,20.30
2019-01-10T04:57:01.746Z,20.30
2019-01-10T05:00:34.330Z,20.30
2019-01-10T05:03:40.284Z,20.30
2019-01-10T05:06:45.939Z,20.20
2019-01-10T05:09:51.586Z,20.20
2019-01-10T05:12:57.271Z,20.20
2019-01-10T05:16:02.896Z,20.20
2019-01-10T05:19:08.626Z,20.20
2019-01-10T05:22:14.303Z,20.20
2019-01-10T05:25:21.862Z,20.20
2019-01-10T05:28:27.554Z,20.30
2019-01-10T05:31:33.211Z,20.30
2019-01-10T05:34:39.858Z,20.30
2019-01-10T05:37:47.243Z,20.40
2019-01-10T05:40:53.830Z,20.40
2019-01-10T05:43:59.507Z,20.40
2019-01-10T05:47:05.258Z,20.40
2019-01-10T05:50:12.939Z,20.50
2019-01-10T05:53:18.611Z,20.60
2019-01-10T05:56:24.247Z,20.60
2019-01-10T05:59:30.919Z,20.60
2019-01-10T06:02:36.787Z,20.70
2019-01-10T06:05:42.435Z,20.70
2019-01-10T06:08:48.055Z,20.70
2019-01-10T06:11:53.726Z,20.80
2019-01-10T06:14:59.390Z,20.80
2019-01-10T06:18:05.951Z,20.80
2019-01-10T06:21:13.355Z,20.90
2019-01-10T06:24:18.983Z,20.90
2019-01-10T06:27:24.760Z,20.90
2019-01-10T06:30:30.407Z,21.00
2019-01-10T06:33:36.043Z,21.00
2019-01-10T06:36:41.755Z,21.00
2019-01-10T06:39:47.351Z,21.00
2019-01-10T06:42:53.160Z,21.00
2019-01-10T06:45:58.777Z,21.00
2019-01-10T06:49:04.619Z,21.00
2019-01-10T06:52:10.267Z,21.10
2019-01-10T06:55:16.198Z,21.10
2019-01-10T06:58:22.918Z,21.10
2019-01-10T07:01:28.843Z,21.10
2019-01-10T07:04:34.536Z,21.10
2019-01-10T07:07:40.551Z,21.10
2019-01-10T07:10:47.819Z,21.10
2019-01-10T07:13:53.485Z,21.10
2019-01-10T07:16:59.090Z,21.10
2019-01-10T07:20:05.474Z,21.10
2019-01-10T07:23:11.110Z,21.10
2019-01-10T07:26:16.806Z,21.20
2019-01-10T07:29:22.518Z,21.20
2019-01-10T07:32:28.219Z,21.20
2019-01-10T07:35:33.902Z,21.20
2019-01-10T07:38:41.223Z,21.20
2019-01-10T07:41:46.871Z,21.20
2019-01-10T07:44:52.631Z,21.20
2019-01-10T07:47:58.278Z,21.20
2019-01-10T07:51:04.008Z,21.20
2019-01-10T07:54:09.791Z,21.20
2019-01-10T07:57:15.547Z,21.30
2019-01-10T08:00:21.581Z,21.40
2019-01-10T08:03:27.264Z,21.60
2019-01-10T08:06:32.909Z,21.60
2019-01-10T08:09:38.568Z,21.60
2019-01-10T08:12:44.194Z,21.60
2019-01-10T08:15:49.976Z,21.40
2019-01-10T08:18:55.626Z,21.30
2019-01-10T08:22:01.282Z,21.40
2019-01-10T08:25:07.410Z,21.50
2019-01-10T08:28:13.070Z,21.60
2019-01-10T08:31:18.724Z,21.70
2019-01-10T08:34:24.410Z,21.90
2019-01-10T08:37:30.051Z,22.00
2019-01-10T08:40:37.511Z,22.10
2019-01-10T08:43:43.203Z,22.20
2019-01-10T08:46:48.830Z,22.30
2019-01-10T08:49:54.486Z,22.40
2019-01-10T08:53:00.271Z,22.40
2019-01-10T08:56:06.225Z,22.50
2019-01-10T08:59:11.880Z,22.50
2019-01-10T09:02:17.642Z,22.60
2019-01-10T09:05:24.486Z,22.70
2019-01-10T09:08:30.370Z,22.70
2019-01-10T09:11:36.128Z,22.70
2019-01-10T09:14:41.759Z,22.60
2019-01-10T09:17:47.647Z,22.50
2019-01-10T09:20:53.318Z,22.30
2019-01-10T09:23:59.020Z,22.20
2019-01-10T09:27:04.784Z,22.10
2019-01-10T09:30:16.162Z,22.00
2019-01-10T09:33:21.814Z,22.00
2019-01-10T09:36:27.467Z,21.90
2019-01-10T09:39:33.142Z,21.90
2019-01-10T09:42:56.823Z,21.90
2019-01-10T09:46:02.574Z,21.90
2019-01-10T09:49:08.362Z,21.90
2019-01-10T09:52:14.167Z,21.80
2019-01-10T09:55:20.155Z,21.90
2019-01-10T09:58:26.136Z,21.80
2019-01-10T10:01:32.967Z,21.80
2019-01-10T10:04:39.554Z,21.80
2019-01-10T10:07:45.427Z,21.80
2019-01-10T10:10:51.146Z,21.80
2019-01-10T10:13:56.829Z,21.80
2019-01-10T10:17:02.494Z,21.80
2019-01-10T10:20:10.151Z,21.90
2019-01-10T10:23:15.852Z,21.90
2019-01-10T10:26:21.491Z,22.00
2019-01-10T10:29:27.257Z,22.00
2019-01-10T10:32:32.998Z,22.10
2019-01-10T10:35:38.870Z,22.10
2019-01-10T10:38:44.507Z,22.20
2019-01-10T10:41:50.159Z,22.20
2019-01-10T10:44:55.815Z,22.30
2019-01-10T10:48:01.511Z,22.40
2019-01-10T10:51:07.226Z,22.40
2019-01-10T10:54:12.950Z,22.40
2019-01-10T10:57:18.812Z,22.50
2019-01-10T11:00:27.841Z,22.50
2019-01-10T11:03:34.259Z,22.60
2019-01-10T11:06:40.213Z,22.50
2019-01-10T11:09:45.843Z,22.50
2019-01-10T11:12:52.013Z,22.50
2019-01-10T11:15:57.846Z,22.50
2019-01-10T11:19:03.605Z,22.50
2019-01-10T11:22:09.382Z,22.50
2019-01-10T11:25:20.274Z,22.50
2019-01-10T11:28:28.640Z,22.50
2019-01-10T11:31:34.307Z,22.50
2019-01-10T11:34:39.955Z,22.50
2019-01-10T11:37:45.641Z,22.50
2019-01-10T11:40:51.287Z,22.60
2019-01-10T11:43:57.148Z,22.60
2019-01-10T11:47:02.731Z,22.60
2019-01-10T11:50:12.131Z,22.60
2019-01-10T11:53:17.878Z,22.60
2019-01-10T11:56:23.658Z,22.60
2019-01-10T11:59:29.300Z,22.60
2019-01-10T12:02:36.367Z,22.70
2019-01-10T12:05:47.845Z,22.70
2019-01-10T12:08:52.430Z,22.70
2019-01-10T12:11:59.186Z,22.70
2019-01-10T12:15:05.943Z,22.70
2019-01-10T12:18:12.643Z,22.70
2019-01-10T12:21:18.319Z,22.80
2019-01-10T12:24:24.070Z,22.80
2019-01-10T12:27:29.726Z,22.90
2019-01-10T12:30:35.370Z,22.90
2019-01-10T12:33:42.312Z,22.90
2019-01-10T12:36:48.011Z,22.90
2019-01-10T12:39:53.646Z,22.90
2019-01-10T12:42:59.319Z,22.90
2019-01-10T12:46:06.065Z,22.90
2019-01-10T12:49:12.074Z,22.90
2019-01-10T12:52:17.706Z,22.90
2019-01-10T12:55:23.829Z,22.90
2019-01-10T12:58:29.690Z,23.00
2019-01-10T13:01:35.258Z,23.00
2019-01-10T13:04:40.934Z,23.00
2019-01-10T13:07:46.529Z,23.00
2019-01-10T13:10:52.114Z,23.00
2019-01-10T13:13:59.658Z,23.10
2019-01-10T13:17:05.286Z,23.10
2019-01-10T13:20:12.518Z,23.10
2019-01-10T13:23:18.102Z,23.10
2019-01-10T13:26:23.883Z,23.10
2019-01-10T13:29:29.638Z,23.10
2019-01-10T13:32:35.842Z,23.10
2019-01-10T13:35:42.131Z,23.10
2019-01-10T13:38:47.998Z,23.10
2019-01-10T13:41:54.353Z,23.10
2019-01-10T13:45:00.294Z,23.10
2019-01-10T13:48:06.190Z,23.10
2019-01-10T13:51:12.327Z,23.10
2019-01-10T13:54:17.930Z,23.10
2019-01-10T13:57:24.035Z,23.10
2019-01-10T14:00:35.718Z,23.10
2019-01-10T14:03:40.747Z,23.20
2019-01-10T14:06:46.379Z,23.10
2019-01-10T14:09:52.066Z,23.20
2019-01-10T14:12:57.682Z,23.20
2019-01-10T14:16:03.587Z,23.20
2019-01-10T14:19:09.194Z,23.20
2019-01-10T14:22:14.886Z,23.20
2019-01-10T14:25:20.778Z,23.20
2019-01-10T14:28:26.678Z,23.10
2019-01-10T14:31:32.758Z,23.20
2019-01-10T14:34:38.601Z,23.10
2019-01-10T14:37:44.344Z,23.10
2019-01-10T14:40:50.206Z,23.10
2019-01-10T14:43:56.079Z,23.10
2019-01-10T14:47:07.477Z,23.10
2019-01-10T14:50:09.890Z,23.10
2019-01-10T14:53:15.486Z,23.10
2019-01-10T14:56:21.106Z,23.00
2019-01-10T14:59:26.781Z,23.00
2019-01-10T15:02:32.430Z,23.00
2019-01-10T15:05:38.171Z,23.00
2019-01-10T15:08:43.838Z,23.00
2019-01-10T15:11:49.594Z,23.00
2019-01-10T15:14:55.346Z,23.00
2019-01-10T15:18:02.026Z,22.90
2019-01-10T15:21:07.679Z,22.90
2019-01-10T15:24:13.307Z,22.90
2019-01-10T15:27:18.981Z,22.90
2019-01-10T15:30:26.247Z,22.90
2019-01-10T15:33:31.929Z,22.90
2019-01-10T15:36:37.662Z,22.90
2019-01-10T15:39:43.411Z,22.90
2019-01-10T15:42:49.092Z,22.90
2019-01-10T15:45:54.742Z,22.90
2019-01-10T15:49:00.498Z,22.90
2019-01-10T15:52:06.126Z,23.00
2019-01-10T15:55:12.590Z,22.90
2019-01-10T15:58:18.262Z,22.90
2019-01-10T16:01:23.935Z,23.00
2019-01-10T16:04:29.578Z,23.00
2019-01-10T16:07:35.226Z,23.00
2019-01-10T16:10:40.863Z,23.00
2019-01-10T16:13:46.578Z,23.00
2019-01-10T16:16:52.507Z,23.00
2019-01-10T16:19:58.168Z,23.00
2019-01-10T16:23:03.802Z,23.00
2019-01-10T16:26:09.462Z,23.00
2019-01-10T16:29:15.086Z,23.00
2019-01-10T16:32:20.851Z,23.00
2019-01-10T16:35:26.413Z,23.00
2019-01-10T16:38:32.174Z,23.00
2019-01-10T16:41:37.822Z,23.00
2019-01-10T16:44:43.538Z,23.00
2019-01-10T16:47:49.357Z,23.10
2019-01-10T16:50:54.991Z,23.10
2019-01-10T16:54:00.638Z,23.00
2019-01-10T16:57:06.599Z,23.10
2019-01-10T17:00:19.626Z,23.10
2019-01-10T17:03:26.382Z,23.10
2019-01-10T17:06:32.647Z,23.10
2019-01-10T17:09:38.326Z,23.10
2019-01-10T17:12:44.038Z,23.10
2019-01-10T17:15:49.730Z,23.10
2019-01-10T17:18:55.434Z,23.10
2019-01-10T17:22:02.851Z,23.10
2019-01-10T17:25:09.058Z,23.10
2019-01-10T17:28:14.782Z,23.10
2019-01-10T17:31:20.500Z,23.10
2019-01-10T17:34:26.102Z,23.10
2019-01-10T17:37:31.807Z,23.10
2019-01-10T17:40:37.619Z,23.00
2019-01-10T17:43:43.311Z,22.90
2019-01-10T17:46:48.931Z,22.90
2019-01-10T17:49:54.712Z,22.90
2019-01-10T17:53:00.535Z,22.90
2019-01-10T17:56:06.707Z,23.00
2019-01-10T17:59:12.358Z,23.00
2019-01-10T18:02:18.095Z,23.10
2019-01-10T18:05:23.734Z,23.20
2019-01-10T18:08:40.626Z,23.30
2019-01-10T18:11:46.303Z,23.40
2019-01-10T18:14:51.963Z,23.60
2019-01-10T18:17:57.613Z,23.80
2019-01-10T18:21:03.370Z,24.00
2019-01-10T18:24:09.020Z,23.90
2019-01-10T18:27:14.650Z,24.20
2019-01-10T18:30:21.940Z,24.70
2019-01-10T18:33:27.619Z,24.90
2019-01-10T18:36:33.240Z,24.90
2019-01-10T18:39:38.924Z,24.90
2019-01-10T18:42:44.674Z,24.80
2019-01-10T18:45:50.583Z,24.60
2019-01-10T18:48:57.193Z,24.30
2019-01-10T18:52:02.969Z,24.20
2019-01-10T18:55:08.597Z,24.00
2019-01-10T18:58:14.354Z,23.80
2019-01-10T19:01:20.022Z,23.70
2019-01-10T19:04:25.678Z,23.60
2019-01-10T19:07:31.309Z,23.60
2019-01-10T19:10:36.982Z,23.60
2019-01-10T19:13:42.606Z,23.60
2019-01-10T19:16:48.678Z,23.60
2019-01-10T19:19:54.450Z,23.70
2019-01-10T19:23:01.740Z,23.70
2019-01-10T19:26:07.703Z,23.80
2019-01-10T19:29:13.363Z,23.80
2019-01-10T19:32:19.013Z,23.80
2019-01-10T19:35:24.666Z,23.70
2019-01-10T19:38:30.291Z,23.60
2019-01-10T19:41:35.950Z,23.40
2019-01-10T19:44:41.545Z,23.20
2019-01-10T19:47:47.274Z,23.10
2019-01-10T19:50:53.138Z,23.00
2019-01-10T19:53:58.762Z,22.90
2019-01-10T19:57:04.545Z,22.90
2019-01-10T20:00:21.132Z,22.80
2019-01-10T20:03:26.810Z,22.80
2019-01-10T20:06:32.634Z,22.80
2019-01-10T20:09:38.310Z,22.80
2019-01-10T20:12:43.972Z,22.90
2019-01-10T20:15:49.993Z,22.90
2019-01-10T20:18:55.770Z,22.80
2019-01-10T20:22:01.535Z,22.70
2019-01-10T20:25:07.501Z,22.60
2019-01-10T20:28:13.163Z,22.40
2019-01-10T20:31:19.808Z,22.40
2019-01-10T20:34:25.587Z,22.30
2019-01-10T20:37:32.953Z,22.10
2019-01-10T20:40:38.635Z,22.10
2019-01-10T20:43:44.262Z,21.90
2019-01-10T20:46:50.023Z,21.90
2019-01-10T20:49:55.698Z,21.90
2019-01-10T20:53:03.119Z,21.80
2019-01-10T20:56:08.715Z,21.70
2019-01-10T20:59:15.189Z,21.60
2019-01-10T21:02:21.938Z,21.30
2019-01-10T21:05:28.309Z,20.60
2019-01-10T21:08:34.285Z,20.10
2019-01-10T21:11:41.019Z,19.60
2019-01-10T21:14:47.512Z,19.20
2019-01-10T21:17:54.145Z,18.90
2019-01-10T21:21:00.756Z,18.60
2019-01-10T21:24:07.291Z,18.40
2019-01-10T21:27:13.568Z,18.20
2019-01-10T21:30:21.108Z,18.00
2019-01-10T21:33:27.682Z,17.80
2019-01-10T21:36:33.519Z,17.60
2019-01-10T21:39:39.239Z,17.50
2019-01-10T21:42:45.678Z,17.30
2019-01-10T21:45:53.214Z,17.20
2019-01-10T21:48:59.313Z,17.10
2019-01-10T21:52:05.636Z,17.40
2019-01-10T21:55:12.291Z,17.80
2019-01-10T21:58:18.267Z,18.20
2019-01-10T22:01:24.155Z,18.50
2019-01-10T22:04:29.921Z,18.70
2019-01-10T22:07:36.291Z,18.80
2019-01-10T22:10:42.347Z,19.00
2019-01-10T22:13:48.370Z,19.10
2019-01-10T22:16:54.359Z,19.20
2019-01-10T22:20:00.484Z,19.30
2019-01-10T22:23:07.562Z,19.40
2019-01-10T22:26:14.518Z,19.40
2019-01-10T22:29:20.143Z,19.50
2019-01-10T22:32:26.338Z,19.50
2019-01-10T22:35:32.767Z,19.60
2019-01-10T22:38:41.106Z,19.70
2019-01-10T22:41:48.582Z,19.70
2019-01-10T22:44:54.441Z,19.80
2019-01-10T22:48:00.364Z,19.80
2019-01-10T22:51:06.543Z,19.80
2019-01-10T22:54:12.561Z,19.80
2019-01-10T22:57:18.949Z,19.80
2019-01-10T23:01:08.058Z,19.90
2019-01-10T23:04:16.841Z,19.80
2019-01-10T23:07:24.242Z,19.90
2019-01-10T23:10:30.015Z,19.90
2019-01-10T23:13:35.692Z,19.80
2019-01-10T23:16:42.202Z,19.80
2019-01-10T23:20:20.043Z,19.90
2019-01-10T23:23:25.834Z,19.90
2019-01-10T23:26:31.726Z,19.90
2019-01-10T23:29:38.363Z,19.90
2019-01-10T23:32:44.054Z,19.90
2019-01-10T23:35:51.895Z,19.90
2019-01-10T23:39:20.622Z,19.90
2019-01-10T23:42:26.367Z,19.90
2019-01-10T23:45:33.013Z,19.90
2019-01-10T23:48:39.703Z,19.90
2019-01-10T23:51:46.104Z,19.90
2019-01-10T23:54:51.720Z,19.90
2019-01-10T23:57:57.444Z,19.90
